Portada
METAR-TAF:

METAR-TAF

Aeroports :

Nakhon Phanom, Tailàndia

latitud: 17-23-02N, longitud: 104-38-35E, altitud: 179 m

Observació

L'informe es va fer fa 38 minuts, a les 03:00 UTC
Vent 6 kt del Nord-Est, variant entre Nord i Sud-Est
Temperatura 27°C
Humitat 58%
Pressió 1017 hPa
Visibilitat: 7000 m
Núvols disperses a una alçada de 3000 ft

METAR: VTUW 210300Z 05006KT 350V140 7000 SCT030 27/18 Q1017 NOSIG

Hora: 10:38 (03:38 UTC)

Pronòstic

L'informe es va fer fa 4 hores i 38 minuts, a les 23:00 UTC
Pronòstic vàlid del 21 a les 00 UTC al 21 a les 24 UTC
Vent 8 kt del Est
Visibilitat 10 km o més
Escasses núvols a una alçada de 2500 ft
Núvols disperses a una alçada de 8000 ft

TAF: VTUW 202300Z 2100/2124 08008KT 9999 FEW025 SCT080

Observacions i pronòstics meteorològics de més de 4000 aeroports (METAR i TAF).

Les estacions disponibles són els punts grocs i vermells al mapa.

Posi el ratolí al punt desitjat per veure el nom de l'estació.

Feu clic per veure les observacions i els pronòstics meteorològics.

Per canviar el mapa: feu clic els botons verds amb una creu de color negre per apropar; al botó verd amb un guió per allunyar la imatge; o en les fletxes verdes per a mapes adjacents.


METAR-TAF: